Aérodrome :
LOGIN :

S'inscrire | Disclaimer

   EN    FR    IT 

 










Légende :    VFR   VFR Marginal   IFR   IFR Intensif   IFR Très Intensif
Visi : 
Plafond : 
>= 8 km
>= 3000ft
5 à 8 km
1000 à 3000 ft
1500m à 5 km
500 à 1000 ft
800 à 1500m
200 à 500 ft
< 800m
< 200 ft
Symboles :   Orages  Brouillard  Fortes neiges  Fortes précipitations  Vent > 20 kt
SIGMETs :   Divers  Orages  Givrage  Turbulence  Onde Orograph.  Cendres Volcan.






- Altitude de l'aérodrome : 157 ft


LESB - Son Bonet

DERNIER METAR :
  • 201900Z AUTO 35003KT 310V010 9999 FEW028/// SCT037/// 10/09 Q1011

METARs EXPIRÉS :
  • 201830Z AUTO 33004KT 9999 FEW021/// SCT031/// OVC057/// 10/09 Q1011
  • 201800Z AUTO 35003KT 9999 FEW027/// SCT031/// 10/09 Q1011
  • 201730Z AUTO 35003KT 9999 FEW026/// SCT032/// 11/09 Q1011
  • 201700Z AUTO 06004KT 030V100 9999 SCT023/// BKN027/// BKN030/// 12/09 Q1011
  • 201630Z AUTO 03005KT 9999 FEW021/// SCT028/// BKN049/// 12/09 Q1011

TAF N/A



MET'MAP, la Météo Aéronautique d'un coup d'oeil ! - Copyright ORBIFLY Décembre 2007 - Disclaimer

ORBIFLY MET'MAP TEAM :

Programmation & Développement : Alexandra Zaïnal
Conception & Développement : Baudouin d'Aumeries
Co-Programmation & Développement : Marc-Olivier Méhu
Soutien technique & logistique : Manuel Goepfert

Contact : metmap@orbifly.com




SOURCES & CREDITS :

   NOAA